createdAt,value
2017-05-01T00:00:12.509Z,17.25
2017-05-01T00:00:25.720Z,17.28
2017-05-01T00:00:38.906Z,17.18
2017-05-01T00:00:52.159Z,17.21
2017-05-01T00:01:04.793Z,17.27
2017-05-01T00:01:18.010Z,17.27
2017-05-01T00:01:30.678Z,17.25
2017-05-01T00:01:43.856Z,17.22
2017-05-01T00:01:56.991Z,17.25
2017-05-01T00:02:10.234Z,17.21
2017-05-01T00:02:22.951Z,17.15
2017-05-01T00:02:36.123Z,17.22
2017-05-01T00:02:49.263Z,17.15
2017-05-01T00:03:02.388Z,17.2
2017-05-01T00:03:15.594Z,17.22
2017-05-01T00:03:28.741Z,17.25
2017-05-01T00:03:41.890Z,17.27
2017-05-01T00:03:55.012Z,17.27
2017-05-01T00:04:07.613Z,17.25
2017-05-01T00:04:20.797Z,17.17
2017-05-01T00:04:33.479Z,17.24
2017-05-01T00:04:46.605Z,17.18
2017-05-01T00:04:59.727Z,17.24
2017-05-01T00:05:12.887Z,17.22
2017-05-01T00:05:25.032Z,17.27
2017-05-01T00:05:37.683Z,17.27
2017-05-01T00:05:50.816Z,17.25
2017-05-01T00:06:04.012Z,17.17
2017-05-01T00:06:17.202Z,17.21
2017-05-01T00:06:30.325Z,17.17
2017-05-01T00:06:42.928Z,17.28
2017-05-01T00:06:56.108Z,17.21
2017-05-01T00:07:09.246Z,17.28
2017-05-01T00:07:21.356Z,17.2
2017-05-01T00:07:34.476Z,17.25
2017-05-01T00:07:47.616Z,17.24
2017-05-01T00:08:00.289Z,17.22
2017-05-01T00:08:13.460Z,17.27
2017-05-01T00:08:26.665Z,17.21
2017-05-01T00:08:39.842Z,17.17
2017-05-01T00:08:52.516Z,17.22
2017-05-01T00:09:05.692Z,17.24
2017-05-01T00:09:18.293Z,17.22
2017-05-01T00:09:31.461Z,17.31
2017-05-01T00:09:44.139Z,17.18
2017-05-01T00:09:57.336Z,17.2
2017-05-01T00:10:10.023Z,17.21
2017-05-01T00:10:22.701Z,17.21
2017-05-01T00:10:35.897Z,17.25
2017-05-01T00:10:49.131Z,17.17
2017-05-01T00:11:01.768Z,17.21
2017-05-01T00:11:14.940Z,17.25
2017-05-01T00:11:28.079Z,17.31
2017-05-01T00:11:41.221Z,17.24
2017-05-01T00:11:54.372Z,17.28
2017-05-01T00:12:07.623Z,17.25
2017-05-01T00:12:20.321Z,17.28
2017-05-01T00:12:33.488Z,17.27
2017-05-01T00:12:46.623Z,17.3
2017-05-01T00:12:59.816Z,17.22
2017-05-01T00:13:12.982Z,17.22
2017-05-01T00:13:26.187Z,17.24
2017-05-01T00:13:39.341Z,17.27
2017-05-01T00:13:52.531Z,17.27
2017-05-01T00:14:05.786Z,17.31
2017-05-01T00:14:18.472Z,17.31
2017-05-01T00:14:31.655Z,17.22
2017-05-01T00:14:44.287Z,17.28
2017-05-01T00:14:56.907Z,17.28
2017-05-01T00:15:10.114Z,17.28
2017-05-01T00:15:22.854Z,17.3
2017-05-01T00:15:36.032Z,17.25
2017-05-01T00:15:49.170Z,17.28
2017-05-01T00:16:02.699Z,17.27
2017-05-01T00:16:15.338Z,17.2
2017-05-01T00:16:28.490Z,17.21
2017-05-01T00:16:41.589Z,17.25
2017-05-01T00:16:54.205Z,17.28
2017-05-01T00:17:07.392Z,17.21
2017-05-01T00:17:20.562Z,17.27
2017-05-01T00:17:33.755Z,17.28
2017-05-01T00:17:46.455Z,17.25
2017-05-01T00:17:59.611Z,17.28
2017-05-01T00:18:12.221Z,17.31
2017-05-01T00:18:25.346Z,17.28
2017-05-01T00:18:38.465Z,17.27
2017-05-01T00:18:51.130Z,17.22
2017-05-01T00:19:04.326Z,17.31
2017-05-01T00:19:16.951Z,17.25
2017-05-01T00:19:30.114Z,17.28
2017-05-01T00:19:43.243Z,17.22
2017-05-01T00:19:56.358Z,17.18
2017-05-01T00:20:08.986Z,17.25
2017-05-01T00:20:21.079Z,17.27
2017-05-01T00:20:33.689Z,17.22
2017-05-01T00:20:46.378Z,17.27
2017-05-01T00:20:59.453Z,17.22
2017-05-01T00:21:12.660Z,17.27
2017-05-01T00:21:25.826Z,17.25
2017-05-01T00:21:38.993Z,17.25
2017-05-01T00:21:52.164Z,17.17
2017-05-01T00:22:05.367Z,17.27
2017-05-01T00:22:17.995Z,17.22
2017-05-01T00:22:31.170Z,17.22
2017-05-01T00:22:43.824Z,17.24
2017-05-01T00:22:57.000Z,17.24
2017-05-01T00:23:10.111Z,17.21
2017-05-01T00:23:23.272Z,17.21
2017-05-01T00:23:36.460Z,17.21
2017-05-01T00:23:49.626Z,17.25
2017-05-01T00:24:02.840Z,17.25
2017-05-01T00:24:16.033Z,17.25
2017-05-01T00:24:29.223Z,17.2
2017-05-01T00:24:42.421Z,17.21
2017-05-01T00:24:55.576Z,17.2
2017-05-01T00:25:08.758Z,17.2
2017-05-01T00:25:21.427Z,17.2
2017-05-01T00:25:34.581Z,17.25
2017-05-01T00:25:47.757Z,17.22
2017-05-01T00:26:01.030Z,17.2
2017-05-01T00:26:13.706Z,17.22
2017-05-01T00:26:26.858Z,17.24
2017-05-01T00:26:40.041Z,17.18
2017-05-01T00:26:52.699Z,17.2
2017-05-01T00:27:05.886Z,17.18
2017-05-01T00:27:18.029Z,17.21
2017-05-01T00:27:30.719Z,17.2
2017-05-01T00:27:43.853Z,17.24
2017-05-01T00:27:57.066Z,17.24
2017-05-01T00:28:09.744Z,17.25
2017-05-01T00:28:22.931Z,17.21
2017-05-01T00:28:36.065Z,17.27
2017-05-01T00:28:48.729Z,17.21
2017-05-01T00:29:01.871Z,17.17
2017-05-01T00:29:14.973Z,17.28
2017-05-01T00:29:28.098Z,17.22
2017-05-01T00:29:41.308Z,17.25
2017-05-01T00:29:54.563Z,17.24
2017-05-01T00:30:07.723Z,17.27
2017-05-01T00:30:20.367Z,17.27
2017-05-01T00:30:33.495Z,17.27
2017-05-01T00:30:46.669Z,17.27
2017-05-01T00:31:00.322Z,17.28
2017-05-01T00:31:13.502Z,17.21
2017-05-01T00:31:26.136Z,17.25
2017-05-01T00:31:39.372Z,17.25
2017-05-01T00:31:52.510Z,17.24
2017-05-01T00:32:05.759Z,17.28
2017-05-01T00:32:18.938Z,17.25
2017-05-01T00:32:32.078Z,17.24
2017-05-01T00:32:45.341Z,17.24
2017-05-01T00:32:58.533Z,17.22
2017-05-01T00:33:11.672Z,17.28
2017-05-01T00:33:24.312Z,17.22
2017-05-01T00:33:37.492Z,17.27
2017-05-01T00:33:50.631Z,17.24
2017-05-01T00:34:03.780Z,17.32
2017-05-01T00:34:16.957Z,17.24
2017-05-01T00:34:29.623Z,17.27
2017-05-01T00:34:42.246Z,17.28
2017-05-01T00:34:54.905Z,17.25
2017-05-01T00:35:08.013Z,17.31
2017-05-01T00:35:21.185Z,17.3
2017-05-01T00:35:34.373Z,17.3
2017-05-01T00:35:47.543Z,17.3
2017-05-01T00:36:00.756Z,17.27
2017-05-01T00:36:13.421Z,17.24
2017-05-01T00:36:26.106Z,17.31
2017-05-01T00:36:39.556Z,17.25
2017-05-01T00:36:52.188Z,17.35
2017-05-01T00:37:05.311Z,17.28
2017-05-01T00:37:18.545Z,17.28
2017-05-01T00:37:31.998Z,17.38
2017-05-01T00:37:45.321Z,17.28
2017-05-01T00:38:00.570Z,17.42
2017-05-01T00:38:13.767Z,17.27
2017-05-01T00:38:26.929Z,17.28
2017-05-01T00:38:40.103Z,17.38
2017-05-01T00:39:04.168Z,17.38
2017-05-01T00:39:17.367Z,17.43
2017-05-01T00:39:30.610Z,17.4
2017-05-01T00:39:43.318Z,17.38
2017-05-01T00:39:56.538Z,17.4
2017-05-01T00:40:09.733Z,17.36
2017-05-01T00:40:22.374Z,17.36
2017-05-01T00:40:34.963Z,17.36
2017-05-01T00:41:13.805Z,17.32
2017-05-01T00:41:37.582Z,17.38
2017-05-01T00:41:50.245Z,17.39
2017-05-01T00:42:03.452Z,17.32
2017-05-01T00:42:16.606Z,17.39
2017-05-01T00:42:29.781Z,17.38
2017-05-01T00:42:42.894Z,17.42
2017-05-01T00:42:56.048Z,17.42
2017-05-01T00:43:09.247Z,17.39
2017-05-01T00:43:21.854Z,17.42
2017-05-01T00:43:34.958Z,17.38
2017-05-01T00:43:48.042Z,17.45
2017-05-01T00:44:01.277Z,17.43
2017-05-01T00:44:14.467Z,17.43
2017-05-01T00:44:27.630Z,17.46
2017-05-01T00:44:40.737Z,17.38
2017-05-01T00:44:53.885Z,17.4
2017-05-01T00:45:07.025Z,17.45
2017-05-01T00:45:19.652Z,17.45
2017-05-01T00:45:32.755Z,17.39
2017-05-01T00:45:45.903Z,17.49
2017-05-01T00:45:59.065Z,17.49
2017-05-01T00:46:12.394Z,17.49
2017-05-01T00:46:24.522Z,17.4
2017-05-01T00:46:37.664Z,17.38
2017-05-01T00:46:53.436Z,17.43
2017-05-01T00:47:06.604Z,17.45
2017-05-01T00:47:19.760Z,17.4
2017-05-01T00:47:32.896Z,17.45
2017-05-01T00:47:46.062Z,17.46
2017-05-01T00:47:59.846Z,17.43
2017-05-01T00:48:13.831Z,17.38
2017-05-01T00:48:26.991Z,17.43
2017-05-01T00:48:40.157Z,17.38
2017-05-01T00:48:52.776Z,17.49
2017-05-01T00:49:05.890Z,17.4
2017-05-01T00:49:18.556Z,17.43
2017-05-01T00:49:31.717Z,17.38
2017-05-01T00:49:44.885Z,17.45
2017-05-01T00:49:58.014Z,17.42
2017-05-01T00:50:10.660Z,17.4
2017-05-01T00:50:23.829Z,17.42
2017-05-01T00:51:08.136Z,17.43
2017-05-01T00:51:20.728Z,17.46
2017-05-01T00:51:33.876Z,17.43
2017-05-01T00:51:47.035Z,17.46
2017-05-01T00:52:00.211Z,17.45
2017-05-01T00:52:12.787Z,17.43
2017-05-01T00:52:25.475Z,17.42
2017-05-01T00:52:39.302Z,17.42
2017-05-01T00:52:52.420Z,17.42
2017-05-01T00:53:05.079Z,17.4
2017-05-01T00:53:18.326Z,17.42
2017-05-01T00:53:31.504Z,17.43
2017-05-01T00:53:44.717Z,17.45
2017-05-01T00:53:57.391Z,17.4
2017-05-01T00:54:10.059Z,17.54
2017-05-01T00:54:22.770Z,17.5
2017-05-01T00:54:36.023Z,17.49
2017-05-01T00:54:49.212Z,17.5
2017-05-01T00:55:01.862Z,17.43
2017-05-01T00:55:15.086Z,17.47
2017-05-01T00:55:28.244Z,17.49
2017-05-01T00:55:41.498Z,17.52
2017-05-01T00:55:53.229Z,17.52
2017-05-01T00:56:06.480Z,17.4
2017-05-01T00:56:19.192Z,17.42
2017-05-01T00:56:32.456Z,17.45
2017-05-01T00:56:45.687Z,17.45
2017-05-01T00:56:58.930Z,17.42
2017-05-01T00:57:12.155Z,17.43
2017-05-01T00:57:25.312Z,17.57
2017-05-01T00:57:38.496Z,17.43
2017-05-01T00:57:50.558Z,17.52
2017-05-01T00:58:03.704Z,17.43
2017-05-01T00:58:17.618Z,17.36
2017-05-01T00:58:30.799Z,17.4
2017-05-01T00:58:43.484Z,17.43
2017-05-01T00:58:56.147Z,17.4
2017-05-01T00:59:09.632Z,17.43
2017-05-01T00:59:21.834Z,17.46
2017-05-01T00:59:34.518Z,17.4
2017-05-01T00:59:47.773Z,17.46
2017-05-01T01:00:01.018Z,17.43
2017-05-01T01:00:14.201Z,17.42
2017-05-01T01:00:27.360Z,17.54
2017-05-01T01:00:40.526Z,17.54
2017-05-01T01:00:53.689Z,17.54
2017-05-01T01:01:06.887Z,17.49
2017-05-01T01:01:20.309Z,17.49
2017-05-01T01:01:33.442Z,17.42
2017-05-01T01:01:46.604Z,17.47
2017-05-01T01:01:59.835Z,17.52
2017-05-01T01:02:12.996Z,17.55
2017-05-01T01:02:25.642Z,17.49
2017-05-01T01:02:37.795Z,17.52
2017-05-01T01:02:50.977Z,17.52
2017-05-01T01:03:04.118Z,17.54
2017-05-01T01:03:17.306Z,17.52
2017-05-01T01:03:29.938Z,17.5
2017-05-01T01:03:43.137Z,17.46
2017-05-01T01:03:56.330Z,17.5
2017-05-01T01:04:09.485Z,17.52
2017-05-01T01:04:22.651Z,17.52
2017-05-01T01:04:35.756Z,17.55
2017-05-01T01:04:48.920Z,17.54
2017-05-01T01:05:01.603Z,17.49
2017-05-01T01:05:14.285Z,17.52
2017-05-01T01:05:26.908Z,17.52
2017-05-01T01:05:40.084Z,17.5
2017-05-01T01:05:53.243Z,17.42
2017-05-01T01:06:06.476Z,17.57
2017-05-01T01:06:19.130Z,17.54
2017-05-01T01:06:32.258Z,17.47
2017-05-01T01:06:45.445Z,17.46
2017-05-01T01:06:58.685Z,17.49
2017-05-01T01:07:11.942Z,17.55
2017-05-01T01:07:25.071Z,17.52
2017-05-01T01:07:38.255Z,17.5
2017-05-01T01:07:51.513Z,17.52
2017-05-01T01:08:04.209Z,17.54
2017-05-01T01:08:17.073Z,17.54
2017-05-01T01:08:30.326Z,17.54
2017-05-01T01:08:43.437Z,17.52
2017-05-01T01:08:56.672Z,17.49
2017-05-01T01:09:09.789Z,17.57
2017-05-01T01:09:22.998Z,17.5
2017-05-01T01:09:36.408Z,17.54
2017-05-01T01:09:49.513Z,17.54
2017-05-01T01:10:02.204Z,17.52
2017-05-01T01:10:14.828Z,17.54
2017-05-01T01:10:27.995Z,17.54
2017-05-01T01:10:41.165Z,17.6
2017-05-01T01:10:54.373Z,17.47
2017-05-01T01:11:07.653Z,17.52
2017-05-01T01:11:20.861Z,17.49
2017-05-01T01:11:34.389Z,17.52
2017-05-01T01:11:47.575Z,17.55
2017-05-01T01:12:01.016Z,17.52
2017-05-01T01:12:13.795Z,17.52
2017-05-01T01:12:26.460Z,17.55
2017-05-01T01:12:39.890Z,17.55
2017-05-01T01:12:53.207Z,17.54
2017-05-01T01:13:06.445Z,17.57
2017-05-01T01:13:19.096Z,17.57
2017-05-01T01:13:32.340Z,17.57
2017-05-01T01:13:45.582Z,17.57
2017-05-01T01:13:58.782Z,17.52
2017-05-01T01:14:11.981Z,17.47
2017-05-01T01:14:25.291Z,17.54
2017-05-01T01:14:39.544Z,17.57
2017-05-01T01:14:52.773Z,17.63
2017-05-01T01:15:05.472Z,17.52
2017-05-01T01:15:19.143Z,17.52
2017-05-01T01:15:32.405Z,17.55
2017-05-01T01:15:45.641Z,17.54
2017-05-01T01:15:58.369Z,17.52
2017-05-01T01:16:11.063Z,17.46
2017-05-01T01:16:24.736Z,17.57
2017-05-01T01:16:37.925Z,17.52
2017-05-01T01:16:51.365Z,17.55
2017-05-01T01:17:04.809Z,17.55
2017-05-01T01:17:18.074Z,17.49
2017-05-01T01:17:30.737Z,17.54
2017-05-01T01:17:43.783Z,17.52
2017-05-01T01:17:57.015Z,17.52
2017-05-01T01:18:10.225Z,17.5
2017-05-01T01:18:25.475Z,17.57
2017-05-01T01:18:38.735Z,17.54
2017-05-01T01:18:51.930Z,17.54
2017-05-01T01:19:05.792Z,17.57
2017-05-01T01:19:19.663Z,17.57
2017-05-01T01:19:32.819Z,17.49
2017-05-01T01:19:46.024Z,17.54
2017-05-01T01:19:59.153Z,17.52
2017-05-01T01:20:11.801Z,17.54
2017-05-01T01:20:26.997Z,17.47
2017-05-01T01:20:40.210Z,17.57
2017-05-01T01:20:53.468Z,17.46
2017-05-01T01:21:06.674Z,17.49
2017-05-01T01:21:19.913Z,17.47
2017-05-01T01:21:32.215Z,17.52
2017-05-01T01:21:44.922Z,17.55
2017-05-01T01:21:58.055Z,17.54
2017-05-01T01:22:11.211Z,17.52
2017-05-01T01:22:24.464Z,17.52
2017-05-01T01:22:37.091Z,17.5
2017-05-01T01:22:50.289Z,17.54
2017-05-01T01:23:03.507Z,17.55
2017-05-01T01:23:16.609Z,17.5
2017-05-01T01:23:29.870Z,17.52
2017-05-01T01:23:42.552Z,17.52
2017-05-01T01:23:55.834Z,17.54
2017-05-01T01:24:09.033Z,17.47
2017-05-01T01:24:21.806Z,17.54
2017-05-01T01:24:35.010Z,17.57
2017-05-01T01:24:48.188Z,17.52
2017-05-01T01:25:01.355Z,17.54
2017-05-01T01:25:13.611Z,17.57
2017-05-01T01:25:26.322Z,17.52
2017-05-01T01:25:39.767Z,17.55
2017-05-01T01:25:53.270Z,17.54
2017-05-01T01:26:06.448Z,17.52
2017-05-01T01:26:19.141Z,17.47
2017-05-01T01:26:32.308Z,17.49
2017-05-01T01:26:45.499Z,17.54
2017-05-01T01:26:58.930Z,17.52
2017-05-01T01:27:11.759Z,17.5
2017-05-01T01:27:24.953Z,17.49
2017-05-01T01:27:38.105Z,17.5
2017-05-01T01:27:51.254Z,17.6
2017-05-01T01:28:04.468Z,17.52
2017-05-01T01:28:17.154Z,17.57
2017-05-01T01:28:30.477Z,17.54
2017-05-01T01:28:43.693Z,17.49
2017-05-01T01:28:56.914Z,17.47
2017-05-01T01:29:09.575Z,17.54
2017-05-01T01:29:23.155Z,17.54
2017-05-01T01:29:36.441Z,17.52
2017-05-01T01:29:49.598Z,17.49
2017-05-01T01:30:02.804Z,17.54
2017-05-01T01:30:15.535Z,17.45
2017-05-01T01:30:28.238Z,17.49
2017-05-01T01:30:42.904Z,17.49
2017-05-01T01:30:57.280Z,17.54
2017-05-01T01:31:12.540Z,17.49
2017-05-01T01:31:26.289Z,17.46
2017-05-01T01:31:39.549Z,17.46
2017-05-01T01:31:52.813Z,17.5
2017-05-01T01:32:06.044Z,17.46
2017-05-01T01:32:20.084Z,17.52
2017-05-01T01:32:33.623Z,17.57
2017-05-01T01:32:48.473Z,17.47
2017-05-01T01:33:01.744Z,17.52
2017-05-01T01:33:15.751Z,17.49
2017-05-01T01:33:29.087Z,17.54
2017-05-01T01:33:42.261Z,17.55
2017-05-01T01:33:56.152Z,17.54
2017-05-01T01:34:11.949Z,17.49
2017-05-01T01:34:25.177Z,17.5
2017-05-01T01:34:37.765Z,17.47
2017-05-01T01:34:51.364Z,17.39
2017-05-01T01:35:15.180Z,17.42
2017-05-01T01:35:28.503Z,17.46
2017-05-01T01:35:41.685Z,17.43
2017-05-01T01:35:55.103Z,17.4
2017-05-01T01:36:08.269Z,17.45
2017-05-01T01:36:21.487Z,17.45
2017-05-01T01:36:33.726Z,17.43
2017-05-01T01:36:47.121Z,17.46
2017-05-01T01:36:59.886Z,17.39
2017-05-01T01:37:12.591Z,17.42
2017-05-01T01:37:25.817Z,17.4
2017-05-01T01:37:38.505Z,17.4
2017-05-01T01:37:51.677Z,17.43
2017-05-01T01:38:05.920Z,17.39
2017-05-01T01:38:18.118Z,17.47
2017-05-01T01:38:32.715Z,17.42
2017-05-01T01:38:45.911Z,17.42
2017-05-01T01:39:12.616Z,17.46
2017-05-01T01:39:26.578Z,17.46
2017-05-01T01:39:39.783Z,17.39
2017-05-01T01:39:52.989Z,17.4
2017-05-01T01:40:06.169Z,17.4
2017-05-01T01:40:18.941Z,17.43
2017-05-01T01:40:32.141Z,17.47
2017-05-01T01:40:45.313Z,17.43
2017-05-01T01:40:58.518Z,17.42
2017-05-01T01:41:11.712Z,17.47
2017-05-01T01:41:24.440Z,17.42
2017-05-01T01:41:37.694Z,17.4
2017-05-01T01:41:50.932Z,17.45
2017-05-01T01:42:05.031Z,17.43
2017-05-01T01:42:17.985Z,17.49
2017-05-01T01:42:31.254Z,17.45
2017-05-01T01:42:44.460Z,17.4
2017-05-01T01:42:56.126Z,17.39
2017-05-01T01:43:09.297Z,17.43
2017-05-01T01:43:22.048Z,17.42
2017-05-01T01:43:35.925Z,17.45
2017-05-01T01:43:49.528Z,17.39
2017-05-01T01:44:02.756Z,17.38
2017-05-01T01:44:16.210Z,17.31
2017-05-01T01:44:29.558Z,17.35
2017-05-01T01:44:42.745Z,17.32
2017-05-01T01:44:56.623Z,17.38
2017-05-01T01:45:09.826Z,17.39
2017-05-01T01:45:22.556Z,17.45
2017-05-01T01:45:35.789Z,17.39
2017-05-01T01:45:48.948Z,17.45
2017-05-01T01:46:02.137Z,17.4
2017-05-01T01:46:14.335Z,17.45
2017-05-01T01:46:27.520Z,17.32
2017-05-01T01:46:40.392Z,17.35
2017-05-01T01:46:54.226Z,17.43
2017-05-01T01:47:07.391Z,17.32
2017-05-01T01:47:20.527Z,17.36
2017-05-01T01:47:33.757Z,17.36
2017-05-01T01:47:46.996Z,17.31
2017-05-01T01:47:59.667Z,17.4
2017-05-01T01:48:12.338Z,17.4
2017-05-01T01:48:25.597Z,17.4
2017-05-01T01:48:38.810Z,17.42
2017-05-01T01:48:52.120Z,17.32
2017-05-01T01:49:05.427Z,17.45
2017-05-01T01:49:18.612Z,17.36
2017-05-01T01:49:32.038Z,17.35
2017-05-01T01:49:45.304Z,17.45
2017-05-01T01:49:58.520Z,17.32
2017-05-01T01:50:11.258Z,17.35
2017-05-01T01:50:24.474Z,17.32
2017-05-01T01:50:37.759Z,17.42
2017-05-01T01:50:50.916Z,17.39
2017-05-01T01:51:04.061Z,17.39
2017-05-01T01:51:17.926Z,17.38
2017-05-01T01:51:31.194Z,17.3
2017-05-01T01:51:44.444Z,17.36
2017-05-01T01:51:58.475Z,17.42
2017-05-01T01:52:12.245Z,17.39
2017-05-01T01:52:25.425Z,17.38
2017-05-01T01:52:41.163Z,17.38
2017-05-01T01:52:54.351Z,17.38
2017-05-01T01:53:07.517Z,17.4
2017-05-01T01:53:20.289Z,17.3
2017-05-01T01:53:33.430Z,17.28
2017-05-01T01:53:46.185Z,17.36
2017-05-01T01:53:59.349Z,17.28
2017-05-01T01:54:12.539Z,17.24
2017-05-01T01:54:25.697Z,17.28
2017-05-01T01:54:39.118Z,17.27
2017-05-01T01:54:52.314Z,17.3
2017-05-01T01:55:05.553Z,17.27
2017-05-01T01:55:19.961Z,17.32
2017-05-01T01:55:33.237Z,17.38
2017-05-01T01:55:47.153Z,17.28
2017-05-01T01:56:03.269Z,17.36
2017-05-01T01:56:16.537Z,17.35
2017-05-01T01:56:29.748Z,17.32
2017-05-01T01:56:43.192Z,17.31
2017-05-01T01:56:57.520Z,17.27
2017-05-01T01:57:09.729Z,17.31
2017-05-01T01:57:22.921Z,17.35
2017-05-01T01:57:36.130Z,17.28
2017-05-01T01:57:49.353Z,17.25
2017-05-01T01:58:02.737Z,17.3
2017-05-01T01:58:15.877Z,17.31
2017-05-01T01:58:29.041Z,17.27
2017-05-01T01:58:43.441Z,17.27
2017-05-01T01:58:56.644Z,17.25
2017-05-01T01:59:09.786Z,17.3
2017-05-01T01:59:22.914Z,17.35
2017-05-01T01:59:36.329Z,17.25
2017-05-01T01:59:49.824Z,17.28
2017-05-01T02:00:03.071Z,17.24
2017-05-01T02:00:14.256Z,17.24
2017-05-01T02:00:27.456Z,17.27
2017-05-01T02:00:40.152Z,17.28
2017-05-01T02:00:52.924Z,17.28
2017-05-01T02:01:06.082Z,17.24
2017-05-01T02:01:19.035Z,17.24
2017-05-01T02:01:32.213Z,17.31
2017-05-01T02:01:45.217Z,17.21
2017-05-01T02:01:58.385Z,17.28
2017-05-01T02:02:11.296Z,17.24
2017-05-01T02:02:24.514Z,17.28
2017-05-01T02:02:37.439Z,17.27
2017-05-01T02:02:50.227Z,17.31
2017-05-01T02:03:03.694Z,17.25
2017-05-01T02:03:18.278Z,17.28
2017-05-01T02:03:31.451Z,17.25
2017-05-01T02:03:45.679Z,17.3
2017-05-01T02:03:59.377Z,17.21
2017-05-01T02:04:12.621Z,17.28
2017-05-01T02:04:25.890Z,17.27
2017-05-01T02:04:39.272Z,17.25
2017-05-01T02:04:51.955Z,17.25
2017-05-01T02:05:05.189Z,17.27
2017-05-01T02:05:17.312Z,17.36
2017-05-01T02:05:31.245Z,17.32
2017-05-01T02:05:45.161Z,17.27
2017-05-01T02:05:58.395Z,17.27
2017-05-01T02:06:11.549Z,17.27
2017-05-01T02:06:24.681Z,17.32
2017-05-01T02:06:37.297Z,17.28
2017-05-01T02:06:50.004Z,17.36
2017-05-01T02:07:03.226Z,17.28
2017-05-01T02:07:15.957Z,17.25
2017-05-01T02:07:29.139Z,17.36
2017-05-01T02:07:43.096Z,17.39
2017-05-01T02:07:56.287Z,17.27
2017-05-01T02:08:09.519Z,17.32
2017-05-01T02:08:22.784Z,17.28
2017-05-01T02:08:35.520Z,17.39
2017-05-01T02:08:49.405Z,17.28
2017-05-01T02:09:02.591Z,17.35
2017-05-01T02:09:15.877Z,17.28
2017-05-01T02:09:29.102Z,17.28
2017-05-01T02:09:42.435Z,17.36
2017-05-01T02:09:55.684Z,17.42
2017-05-01T02:10:08.078Z,17.39
2017-05-01T02:10:20.984Z,17.36
2017-05-01T02:10:34.150Z,17.4
2017-05-01T02:10:47.251Z,17.39
2017-05-01T02:11:01.101Z,17.38
2017-05-01T02:11:14.414Z,17.31
2017-05-01T02:11:27.110Z,17.31
2017-05-01T02:11:40.306Z,17.42
2017-05-01T02:11:53.056Z,17.31
2017-05-01T02:12:06.244Z,17.42
2017-05-01T02:12:19.417Z,17.47
2017-05-01T02:12:32.557Z,17.43
2017-05-01T02:12:45.772Z,17.42
2017-05-01T02:12:59.643Z,17.45
2017-05-01T02:13:12.875Z,17.43
2017-05-01T02:13:26.370Z,17.43
2017-05-01T02:13:39.490Z,17.38
2017-05-01T02:14:01.916Z,17.42
2017-05-01T02:14:30.789Z,17.35
2017-05-01T02:14:44.646Z,17.39
2017-05-01T02:14:57.360Z,17.39
2017-05-01T02:15:13.910Z,17.38
2017-05-01T02:15:26.676Z,17.4
2017-05-01T02:15:45.694Z,17.35
2017-05-01T02:15:58.948Z,17.31
2017-05-01T02:16:18.059Z,17.39
2017-05-01T02:16:31.256Z,17.35
2017-05-01T02:16:45.624Z,17.39
2017-05-01T02:16:58.770Z,17.42
2017-05-01T02:17:11.498Z,17.35
2017-05-01T02:17:24.664Z,17.35
2017-05-01T02:17:37.359Z,17.39
2017-05-01T02:17:50.494Z,17.3
2017-05-01T02:18:03.874Z,17.39
2017-05-01T02:18:16.599Z,17.36
2017-05-01T02:18:29.837Z,17.36
2017-05-01T02:18:43.010Z,17.36
2017-05-01T02:18:56.150Z,17.36
2017-05-01T02:19:09.359Z,17.42
2017-05-01T02:19:22.518Z,17.39
2017-05-01T02:19:35.704Z,17.35
2017-05-01T02:19:48.938Z,17.36
2017-05-01T02:20:02.090Z,17.31
2017-05-01T02:20:15.322Z,17.31
2017-05-01T02:20:29.434Z,17.43
2017-05-01T02:20:42.215Z,17.35
2017-05-01T02:20:55.501Z,17.36
2017-05-01T02:21:08.858Z,17.3
2017-05-01T02:21:22.780Z,17.32
2017-05-01T02:21:35.989Z,17.42
2017-05-01T02:21:50.587Z,17.27
2017-05-01T02:22:03.744Z,17.35
2017-05-01T02:22:17.582Z,17.36
2017-05-01T02:22:31.124Z,17.38
2017-05-01T02:22:44.398Z,17.36
2017-05-01T02:22:57.663Z,17.35
2017-05-01T02:23:10.354Z,17.35
2017-05-01T02:23:24.089Z,17.25
2017-05-01T02:23:37.346Z,17.27
2017-05-01T02:23:50.562Z,17.3
2017-05-01T02:24:04.687Z,17.22
2017-05-01T02:24:17.916Z,17.31
2017-05-01T02:24:31.327Z,17.28
2017-05-01T02:24:44.700Z,17.27
2017-05-01T02:24:57.883Z,17.28
2017-05-01T02:25:10.580Z,17.2
2017-05-01T02:25:23.771Z,17.2
2017-05-01T02:25:36.424Z,17.28
2017-05-01T02:25:49.614Z,17.17
2017-05-01T02:26:02.790Z,17.18
2017-05-01T02:26:15.961Z,17.27
2017-05-01T02:26:29.862Z,17.21
2017-05-01T02:26:42.863Z,17.25
2017-05-01T02:26:56.092Z,17.27
2017-05-01T02:27:09.255Z,17.21
2017-05-01T02:27:21.948Z,17.28
2017-05-01T02:27:34.664Z,17.25
2017-05-01T02:27:47.806Z,17.27
2017-05-01T02:28:00.967Z,17.28
2017-05-01T02:28:14.200Z,17.4
2017-05-01T02:28:28.615Z,17.39
2017-05-01T02:28:41.799Z,17.4
2017-05-01T02:28:55.045Z,17.39
2017-05-01T02:29:08.184Z,17.43
2017-05-01T02:29:21.397Z,17.4
2017-05-01T02:29:34.080Z,17.45
2017-05-01T02:29:47.505Z,17.45
2017-05-01T02:30:00.943Z,17.42
2017-05-01T02:30:13.637Z,17.39
2017-05-01T02:30:26.340Z,17.3
2017-05-01T02:30:38.984Z,17.31
2017-05-01T02:30:52.210Z,17.38
2017-05-01T02:31:05.329Z,17.32
2017-05-01T02:31:18.468Z,17.39
2017-05-01T02:31:31.626Z,17.31
2017-05-01T02:31:44.787Z,17.42
2017-05-01T02:31:58.290Z,17.31
2017-05-01T02:32:10.430Z,17.39
2017-05-01T02:32:23.627Z,17.39
2017-05-01T02:32:36.889Z,17.42
2017-05-01T02:32:50.078Z,17.32
2017-05-01T02:33:03.244Z,17.3
2017-05-01T02:33:15.978Z,17.36
2017-05-01T02:33:29.076Z,17.32
2017-05-01T02:33:42.265Z,17.45
2017-05-01T02:33:55.408Z,17.32
2017-05-01T02:34:08.079Z,17.31
2017-05-01T02:34:21.248Z,17.4
2017-05-01T02:34:33.929Z,17.35
2017-05-01T02:34:47.115Z,17.32
2017-05-01T02:35:00.240Z,17.35
2017-05-01T02:35:12.919Z,17.36
2017-05-01T02:35:26.111Z,17.42
2017-05-01T02:35:39.282Z,17.35
2017-05-01T02:35:52.438Z,17.3
2017-05-01T02:36:05.672Z,17.38
2017-05-01T02:36:17.836Z,17.39
2017-05-01T02:36:31.020Z,17.39
2017-05-01T02:36:44.206Z,17.39
2017-05-01T02:36:57.384Z,17.35
2017-05-01T02:37:10.045Z,17.35
2017-05-01T02:37:22.749Z,17.38
2017-05-01T02:37:35.936Z,17.42
2017-05-01T02:37:49.104Z,17.4
2017-05-01T02:38:02.321Z,17.32
2017-05-01T02:38:14.949Z,17.38
2017-05-01T02:38:28.173Z,17.28
2017-05-01T02:38:40.909Z,17.31
2017-05-01T02:38:54.179Z,17.24
2017-05-01T02:39:07.381Z,17.22
2017-05-01T02:39:20.111Z,17.31
2017-05-01T02:39:33.574Z,17.28
2017-05-01T02:39:46.868Z,17.28
2017-05-01T02:40:00.066Z,17.24
2017-05-01T02:40:11.760Z,17.35
2017-05-01T02:40:25.045Z,17.25
2017-05-01T02:40:38.295Z,17.28
2017-05-01T02:40:51.516Z,17.21
2017-05-01T02:41:04.721Z,17.25
2017-05-01T02:41:16.868Z,17.25
2017-05-01T02:41:30.132Z,17.28
2017-05-01T02:41:43.349Z,17.28
2017-05-01T02:41:56.595Z,17.25
2017-05-01T02:42:09.298Z,17.31
2017-05-01T02:42:21.989Z,17.25
2017-05-01T02:42:35.248Z,17.3
2017-05-01T02:42:47.987Z,17.38
2017-05-01T02:43:01.244Z,17.38
2017-05-01T02:43:14.072Z,17.38
2017-05-01T02:43:26.720Z,17.36
2017-05-01T02:43:39.994Z,17.38
2017-05-01T02:43:52.664Z,17.42
2017-05-01T02:44:05.860Z,17.4
2017-05-01T02:44:19.045Z,17.38
2017-05-01T02:44:32.302Z,17.38
2017-05-01T02:44:46.476Z,17.4
2017-05-01T02:44:59.717Z,17.28
2017-05-01T02:45:13.222Z,17.36
2017-05-01T02:45:25.902Z,17.27
2017-05-01T02:45:40.425Z,17.25
2017-05-01T02:45:53.990Z,17.36
2017-05-01T02:46:07.172Z,17.39
2017-05-01T02:46:19.322Z,17.3
2017-05-01T02:46:32.545Z,17.35
2017-05-01T02:46:45.239Z,17.36
2017-05-01T02:46:58.088Z,17.25
2017-05-01T02:47:11.280Z,17.3
2017-05-01T02:47:24.468Z,17.31
2017-05-01T02:47:37.681Z,17.31
2017-05-01T02:47:50.954Z,17.3
2017-05-01T02:48:04.188Z,17.21
2017-05-01T02:48:17.398Z,17.25
2017-05-01T02:48:29.988Z,17.25
2017-05-01T02:48:43.186Z,17.27
2017-05-01T02:48:56.448Z,17.3
2017-05-01T02:49:09.598Z,17.28
2017-05-01T02:49:22.757Z,17.22
2017-05-01T02:49:35.892Z,17.24
2017-05-01T02:49:49.076Z,17.25
2017-05-01T02:50:02.242Z,17.3
2017-05-01T02:50:14.851Z,17.28
2017-05-01T02:50:28.052Z,17.25
2017-05-01T02:50:41.218Z,17.28
2017-05-01T02:50:53.899Z,17.3
2017-05-01T02:51:07.025Z,17.21
2017-05-01T02:51:20.201Z,17.21
2017-05-01T02:51:33.377Z,17.28
2017-05-01T02:51:46.550Z,17.27
2017-05-01T02:51:59.749Z,17.36
2017-05-01T02:52:12.918Z,17.39
2017-05-01T02:52:26.101Z,17.38